sensor_id;sensor_type;location;lat;lon;timestamp;temperature;humidity
21759;DHT22;11041;50.854;20.580;2022-10-16T00:01:16;13.90;99.90
21759;DHT22;11041;50.854;20.580;2022-10-16T00:03:45;13.90;99.90
21759;DHT22;11041;50.854;20.580;2022-10-16T00:06:14;13.90;99.90
21759;DHT22;11041;50.854;20.580;2022-10-16T00:08:42;13.90;99.90
21759;DHT22;11041;50.854;20.580;2022-10-16T00:11:24;13.90;99.90
21759;DHT22;11041;50.854;20.580;2022-10-16T00:13:55;13.90;99.90
21759;DHT22;11041;50.854;20.580;2022-10-16T00:16:25;13.90;99.90
21759;DHT22;11041;50.854;20.580;2022-10-16T00:18:52;13.90;99.90
21759;DHT22;11041;50.854;20.580;2022-10-16T00:21:24;13.90;99.90
21759;DHT22;11041;50.854;20.580;2022-10-16T00:24:04;13.80;99.90
21759;DHT22;11041;50.854;20.580;2022-10-16T00:26:34;13.90;99.90
21759;DHT22;11041;50.854;20.580;2022-10-16T00:29:03;13.80;99.90
21759;DHT22;11041;50.854;20.580;2022-10-16T00:31:30;13.90;99.90
21759;DHT22;11041;50.854;20.580;2022-10-16T00:33:57;13.80;99.90
21759;DHT22;11041;50.854;20.580;2022-10-16T00:36:25;13.80;99.90
21759;DHT22;11041;50.854;20.580;2022-10-16T00:38:56;13.80;99.90
21759;DHT22;11041;50.854;20.580;2022-10-16T00:41:25;13.80;99.90
21759;DHT22;11041;50.854;20.580;2022-10-16T00:43:57;13.80;99.90
21759;DHT22;11041;50.854;20.580;2022-10-16T00:46:29;13.70;99.90
21759;DHT22;11041;50.854;20.580;2022-10-16T00:49:10;13.70;99.90
21759;DHT22;11041;50.854;20.580;2022-10-16T00:51:53;13.70;99.90
21759;DHT22;11041;50.854;20.580;2022-10-16T00:54:30;13.70;99.90
21759;DHT22;11041;50.854;20.580;2022-10-16T00:57:01;13.70;99.90
21759;DHT22;11041;50.854;20.580;2022-10-16T00:59:38;13.70;99.90
21759;DHT22;11041;50.854;20.580;2022-10-16T01:02:09;13.70;99.90
21759;DHT22;11041;50.854;20.580;2022-10-16T01:04:47;13.70;99.90
21759;DHT22;11041;50.854;20.580;2022-10-16T01:13:07;13.60;99.90
21759;DHT22;11041;50.854;20.580;2022-10-16T01:15:59;13.60;99.90
21759;DHT22;11041;50.854;20.580;2022-10-16T01:18:57;13.60;99.90
21759;DHT22;11041;50.854;20.580;2022-10-16T01:21:47;13.50;99.90
21759;DHT22;11041;50.854;20.580;2022-10-16T01:24:24;13.60;99.90
21759;DHT22;11041;50.854;20.580;2022-10-16T01:30:24;13.50;99.90
21759;DHT22;11041;50.854;20.580;2022-10-16T01:33:23;13.50;99.90
21759;DHT22;11041;50.854;20.580;2022-10-16T01:36:07;13.50;99.90
21759;DHT22;11041;50.854;20.580;2022-10-16T01:38:39;13.50;99.90
21759;DHT22;11041;50.854;20.580;2022-10-16T01:41:18;13.50;99.90
21759;DHT22;11041;50.854;20.580;2022-10-16T01:44:51;13.50;99.90
21759;DHT22;11041;50.854;20.580;2022-10-16T01:47:00;13.50;99.90
21759;DHT22;11041;50.854;20.580;2022-10-16T01:49:31;13.50;99.90
21759;DHT22;11041;50.854;20.580;2022-10-16T01:52:02;13.50;99.90
21759;DHT22;11041;50.854;20.580;2022-10-16T01:54:35;13.50;99.90
21759;DHT22;11041;50.854;20.580;2022-10-16T01:57:05;13.50;99.90
21759;DHT22;11041;50.854;20.580;2022-10-16T01:59:37;13.50;99.90
21759;DHT22;11041;50.854;20.580;2022-10-16T02:02:10;13.50;99.90
21759;DHT22;11041;50.854;20.580;2022-10-16T02:04:45;13.40;99.90
21759;DHT22;11041;50.854;20.580;2022-10-16T02:07:15;13.40;99.90
21759;DHT22;11041;50.854;20.580;2022-10-16T02:09:42;13.40;99.90
21759;DHT22;11041;50.854;20.580;2022-10-16T02:12:18;13.40;99.90
21759;DHT22;11041;50.854;20.580;2022-10-16T02:14:51;13.40;99.90
21759;DHT22;11041;50.854;20.580;2022-10-16T02:17:19;13.40;99.90
21759;DHT22;11041;50.854;20.580;2022-10-16T02:19:48;13.40;99.90
21759;DHT22;11041;50.854;20.580;2022-10-16T02:22:30;13.40;99.90
21759;DHT22;11041;50.854;20.580;2022-10-16T02:25:33;13.40;99.90
21759;DHT22;11041;50.854;20.580;2022-10-16T02:28:06;13.40;99.90
21759;DHT22;11041;50.854;20.580;2022-10-16T02:30:55;13.40;99.90
21759;DHT22;11041;50.854;20.580;2022-10-16T02:33:27;13.40;99.90
21759;DHT22;11041;50.854;20.580;2022-10-16T02:35:57;13.40;99.90
21759;DHT22;11041;50.854;20.580;2022-10-16T02:38:25;13.40;99.90
21759;DHT22;11041;50.854;20.580;2022-10-16T02:40:52;13.40;99.90
21759;DHT22;11041;50.854;20.580;2022-10-16T02:43:20;13.40;99.90
21759;DHT22;11041;50.854;20.580;2022-10-16T02:45:47;13.40;99.90
21759;DHT22;11041;50.854;20.580;2022-10-16T02:48:13;13.30;99.90
21759;DHT22;11041;50.854;20.580;2022-10-16T02:50:40;13.30;99.90
21759;DHT22;11041;50.854;20.580;2022-10-16T02:53:07;13.30;99.90
21759;DHT22;11041;50.854;20.580;2022-10-16T02:55:33;13.20;99.90
21759;DHT22;11041;50.854;20.580;2022-10-16T02:58:00;13.20;99.90
21759;DHT22;11041;50.854;20.580;2022-10-16T03:00:26;13.20;99.90
21759;DHT22;11041;50.854;20.580;2022-10-16T03:02:54;13.10;99.90
21759;DHT22;11041;50.854;20.580;2022-10-16T03:05:21;13.10;99.90
21759;DHT22;11041;50.854;20.580;2022-10-16T03:07:47;13.10;99.90
21759;DHT22;11041;50.854;20.580;2022-10-16T03:10:14;13.10;99.90
21759;DHT22;11041;50.854;20.580;2022-10-16T03:12:40;13.00;99.90
21759;DHT22;11041;50.854;20.580;2022-10-16T03:15:07;13.00;99.90
21759;DHT22;11041;50.854;20.580;2022-10-16T03:17:35;13.00;99.90
21759;DHT22;11041;50.854;20.580;2022-10-16T03:20:02;13.00;99.90
21759;DHT22;11041;50.854;20.580;2022-10-16T03:22:30;13.00;99.90
21759;DHT22;11041;50.854;20.580;2022-10-16T03:24:56;13.00;99.90
21759;DHT22;11041;50.854;20.580;2022-10-16T03:27:23;13.00;99.90
21759;DHT22;11041;50.854;20.580;2022-10-16T03:29:49;13.00;99.90
21759;DHT22;11041;50.854;20.580;2022-10-16T03:32:15;12.90;99.90
21759;DHT22;11041;50.854;20.580;2022-10-16T03:34:42;12.90;99.90
21759;DHT22;11041;50.854;20.580;2022-10-16T03:37:08;12.90;99.90
21759;DHT22;11041;50.854;20.580;2022-10-16T03:39:35;12.90;99.90
21759;DHT22;11041;50.854;20.580;2022-10-16T03:42:01;12.80;99.90
21759;DHT22;11041;50.854;20.580;2022-10-16T03:44:28;12.70;99.90
21759;DHT22;11041;50.854;20.580;2022-10-16T03:46:55;12.70;99.90
21759;DHT22;11041;50.854;20.580;2022-10-16T03:49:21;12.70;99.90
21759;DHT22;11041;50.854;20.580;2022-10-16T03:51:48;12.70;99.90
21759;DHT22;11041;50.854;20.580;2022-10-16T03:54:14;12.70;99.90
21759;DHT22;11041;50.854;20.580;2022-10-16T03:56:41;12.70;99.90
21759;DHT22;11041;50.854;20.580;2022-10-16T03:59:08;12.80;99.90
21759;DHT22;11041;50.854;20.580;2022-10-16T04:01:34;12.80;99.90
21759;DHT22;11041;50.854;20.580;2022-10-16T04:04:01;12.80;99.90
21759;DHT22;11041;50.854;20.580;2022-10-16T04:06:27;12.80;99.90
21759;DHT22;11041;50.854;20.580;2022-10-16T04:08:54;12.90;99.90
21759;DHT22;11041;50.854;20.580;2022-10-16T04:11:20;12.90;99.90
21759;DHT22;11041;50.854;20.580;2022-10-16T04:13:47;12.90;99.90
21759;DHT22;11041;50.854;20.580;2022-10-16T04:16:13;12.90;99.90
21759;DHT22;11041;50.854;20.580;2022-10-16T04:18:40;13.00;99.90
21759;DHT22;11041;50.854;20.580;2022-10-16T04:21:07;13.00;99.90
21759;DHT22;11041;50.854;20.580;2022-10-16T04:23:34;13.00;99.90
21759;DHT22;11041;50.854;20.580;2022-10-16T04:26:01;13.00;99.90
21759;DHT22;11041;50.854;20.580;2022-10-16T04:28:28;13.10;99.90
21759;DHT22;11041;50.854;20.580;2022-10-16T04:30:54;13.10;99.90
21759;DHT22;11041;50.854;20.580;2022-10-16T04:33:21;13.10;99.90
21759;DHT22;11041;50.854;20.580;2022-10-16T04:35:48;13.10;99.90
21759;DHT22;11041;50.854;20.580;2022-10-16T04:38:14;13.10;99.90
21759;DHT22;11041;50.854;20.580;2022-10-16T04:40:42;13.20;99.90
21759;DHT22;11041;50.854;20.580;2022-10-16T04:43:08;13.20;99.90
21759;DHT22;11041;50.854;20.580;2022-10-16T04:45:35;13.20;99.90
21759;DHT22;11041;50.854;20.580;2022-10-16T04:48:01;13.20;99.90
21759;DHT22;11041;50.854;20.580;2022-10-16T04:50:28;13.20;99.90
21759;DHT22;11041;50.854;20.580;2022-10-16T04:52:55;13.20;99.90
21759;DHT22;11041;50.854;20.580;2022-10-16T04:55:21;13.20;99.90
21759;DHT22;11041;50.854;20.580;2022-10-16T04:57:48;13.20;99.90
21759;DHT22;11041;50.854;20.580;2022-10-16T05:00:14;13.20;99.90
21759;DHT22;11041;50.854;20.580;2022-10-16T05:02:41;13.20;99.90
21759;DHT22;11041;50.854;20.580;2022-10-16T05:05:07;13.20;99.90
21759;DHT22;11041;50.854;20.580;2022-10-16T05:07:34;13.30;99.90
21759;DHT22;11041;50.854;20.580;2022-10-16T05:10:01;13.20;99.90
21759;DHT22;11041;50.854;20.580;2022-10-16T05:12:28;13.20;99.90
21759;DHT22;11041;50.854;20.580;2022-10-16T05:14:54;13.20;99.90
21759;DHT22;11041;50.854;20.580;2022-10-16T05:17:25;13.20;99.90
21759;DHT22;11041;50.854;20.580;2022-10-16T05:19:52;13.30;99.90
21759;DHT22;11041;50.854;20.580;2022-10-16T05:22:18;13.30;99.90
21759;DHT22;11041;50.854;20.580;2022-10-16T05:24:45;13.30;99.90
21759;DHT22;11041;50.854;20.580;2022-10-16T05:27:12;13.20;99.90
21759;DHT22;11041;50.854;20.580;2022-10-16T05:29:46;13.30;99.90
21759;DHT22;11041;50.854;20.580;2022-10-16T05:32:14;13.30;99.90
21759;DHT22;11041;50.854;20.580;2022-10-16T05:34:42;13.30;99.90
21759;DHT22;11041;50.854;20.580;2022-10-16T05:37:10;13.30;99.90
21759;DHT22;11041;50.854;20.580;2022-10-16T05:39:41;13.40;99.90
21759;DHT22;11041;50.854;20.580;2022-10-16T05:42:07;13.40;99.90
21759;DHT22;11041;50.854;20.580;2022-10-16T05:44:34;13.40;99.90
21759;DHT22;11041;50.854;20.580;2022-10-16T05:47:00;13.40;99.90
21759;DHT22;11041;50.854;20.580;2022-10-16T05:49:27;13.30;99.90
21759;DHT22;11041;50.854;20.580;2022-10-16T05:51:53;13.40;99.90
21759;DHT22;11041;50.854;20.580;2022-10-16T05:54:20;13.40;99.90
21759;DHT22;11041;50.854;20.580;2022-10-16T05:56:46;13.40;99.90
21759;DHT22;11041;50.854;20.580;2022-10-16T05:59:13;13.30;99.90
21759;DHT22;11041;50.854;20.580;2022-10-16T06:01:39;13.30;99.90
21759;DHT22;11041;50.854;20.580;2022-10-16T06:04:31;13.30;99.90
21759;DHT22;11041;50.854;20.580;2022-10-16T06:07:23;13.20;99.90
21759;DHT22;11041;50.854;20.580;2022-10-16T06:10:14;13.20;99.90
21759;DHT22;11041;50.854;20.580;2022-10-16T06:13:06;13.10;99.90
21759;DHT22;11041;50.854;20.580;2022-10-16T06:15:58;13.10;99.90
21759;DHT22;11041;50.854;20.580;2022-10-16T06:18:54;13.10;99.90
21759;DHT22;11041;50.854;20.580;2022-10-16T06:21:46;13.10;99.90
21759;DHT22;11041;50.854;20.580;2022-10-16T06:24:37;13.10;99.90
21759;DHT22;11041;50.854;20.580;2022-10-16T06:27:28;13.20;99.90
21759;DHT22;11041;50.854;20.580;2022-10-16T06:30:19;13.30;99.90
21759;DHT22;11041;50.854;20.580;2022-10-16T06:33:11;13.30;99.90
21759;DHT22;11041;50.854;20.580;2022-10-16T06:36:06;13.40;99.90
21759;DHT22;11041;50.854;20.580;2022-10-16T06:39:03;13.50;99.90
21759;DHT22;11041;50.854;20.580;2022-10-16T06:56:47;13.90;99.90
21759;DHT22;11041;50.854;20.580;2022-10-16T06:59:13;14.00;99.90
21759;DHT22;11041;50.854;20.580;2022-10-16T07:01:40;14.00;99.90
21759;DHT22;11041;50.854;20.580;2022-10-16T07:04:06;14.10;99.90
21759;DHT22;11041;50.854;20.580;2022-10-16T07:06:34;14.20;99.90
21759;DHT22;11041;50.854;20.580;2022-10-16T07:09:03;14.20;99.90
21759;DHT22;11041;50.854;20.580;2022-10-16T07:11:31;14.30;99.90
21759;DHT22;11041;50.854;20.580;2022-10-16T07:13:58;14.40;99.90
21759;DHT22;11041;50.854;20.580;2022-10-16T07:16:30;14.50;99.90
21759;DHT22;11041;50.854;20.580;2022-10-16T07:19:00;14.60;99.90
21759;DHT22;11041;50.854;20.580;2022-10-16T07:21:32;14.70;99.90
21759;DHT22;11041;50.854;20.580;2022-10-16T07:24:04;14.80;99.90
21759;DHT22;11041;50.854;20.580;2022-10-16T07:26:34;14.90;99.90
21759;DHT22;11041;50.854;20.580;2022-10-16T07:29:03;15.00;99.90
21759;DHT22;11041;50.854;20.580;2022-10-16T07:31:29;15.10;99.90
21759;DHT22;11041;50.854;20.580;2022-10-16T07:33:58;15.20;99.90
21759;DHT22;11041;50.854;20.580;2022-10-16T07:36:26;15.20;99.90
21759;DHT22;11041;50.854;20.580;2022-10-16T07:38:53;15.30;99.90
21759;DHT22;11041;50.854;20.580;2022-10-16T07:41:20;15.30;99.90
21759;DHT22;11041;50.854;20.580;2022-10-16T07:43:51;15.40;99.90
21759;DHT22;11041;50.854;20.580;2022-10-16T07:46:21;15.40;99.90
21759;DHT22;11041;50.854;20.580;2022-10-16T07:48:50;15.50;99.90
21759;DHT22;11041;50.854;20.580;2022-10-16T07:51:18;15.60;99.90
21759;DHT22;11041;50.854;20.580;2022-10-16T07:53:47;15.60;99.90
21759;DHT22;11041;50.854;20.580;2022-10-16T07:56:15;15.70;99.90
21759;DHT22;11041;50.854;20.580;2022-10-16T07:58:43;15.90;99.90
21759;DHT22;11041;50.854;20.580;2022-10-16T08:01:13;16.00;99.90
21759;DHT22;11041;50.854;20.580;2022-10-16T08:03:49;16.00;99.90
21759;DHT22;11041;50.854;20.580;2022-10-16T08:06:18;16.10;99.90
21759;DHT22;11041;50.854;20.580;2022-10-16T08:08:47;16.00;99.90
21759;DHT22;11041;50.854;20.580;2022-10-16T08:11:14;16.10;99.90
21759;DHT22;11041;50.854;20.580;2022-10-16T08:13:41;16.10;99.90
21759;DHT22;11041;50.854;20.580;2022-10-16T08:16:08;16.20;99.90
21759;DHT22;11041;50.854;20.580;2022-10-16T08:18:37;16.30;99.90
21759;DHT22;11041;50.854;20.580;2022-10-16T08:21:05;16.30;99.90
21759;DHT22;11041;50.854;20.580;2022-10-16T08:23:34;16.40;99.90
21759;DHT22;11041;50.854;20.580;2022-10-16T08:26:06;16.40;99.90
21759;DHT22;11041;50.854;20.580;2022-10-16T08:28:34;16.50;99.90
21759;DHT22;11041;50.854;20.580;2022-10-16T08:31:12;16.60;99.90
21759;DHT22;11041;50.854;20.580;2022-10-16T08:33:42;16.60;99.90
21759;DHT22;11041;50.854;20.580;2022-10-16T08:36:12;16.60;99.90
21759;DHT22;11041;50.854;20.580;2022-10-16T08:38:40;16.50;99.90
21759;DHT22;11041;50.854;20.580;2022-10-16T08:47:21;16.60;99.90
21759;DHT22;11041;50.854;20.580;2022-10-16T08:50:08;16.70;99.90
21759;DHT22;11041;50.854;20.580;2022-10-16T08:52:40;16.70;99.90
21759;DHT22;11041;50.854;20.580;2022-10-16T08:58:18;16.90;99.90
21759;DHT22;11041;50.854;20.580;2022-10-16T09:00:50;16.90;99.90
21759;DHT22;11041;50.854;20.580;2022-10-16T09:06:47;17.10;99.90
21759;DHT22;11041;50.854;20.580;2022-10-16T09:18:00;17.70;99.90
21759;DHT22;11041;50.854;20.580;2022-10-16T09:23:36;17.90;99.90
21759;DHT22;11041;50.854;20.580;2022-10-16T09:26:05;17.90;99.90
21759;DHT22;11041;50.854;20.580;2022-10-16T09:28:36;18.00;99.90
21759;DHT22;11041;50.854;20.580;2022-10-16T09:31:03;18.00;99.90
21759;DHT22;11041;50.854;20.580;2022-10-16T09:33:35;18.00;99.90
21759;DHT22;11041;50.854;20.580;2022-10-16T09:36:05;18.10;99.90
21759;DHT22;11041;50.854;20.580;2022-10-16T09:38:35;18.20;99.90
21759;DHT22;11041;50.854;20.580;2022-10-16T09:41:17;18.20;99.90
21759;DHT22;11041;50.854;20.580;2022-10-16T09:46:26;18.20;99.90
21759;DHT22;11041;50.854;20.580;2022-10-16T09:49:00;18.20;99.90
21759;DHT22;11041;50.854;20.580;2022-10-16T09:51:36;18.10;99.90
21759;DHT22;11041;50.854;20.580;2022-10-16T09:56:37;18.10;99.90
21759;DHT22;11041;50.854;20.580;2022-10-16T11:04:38;19.20;99.90
21759;DHT22;11041;50.854;20.580;2022-10-16T11:07:20;19.40;99.90
21759;DHT22;11041;50.854;20.580;2022-10-16T11:09:58;19.40;99.90
21759;DHT22;11041;50.854;20.580;2022-10-16T11:12:53;19.40;99.90
21759;DHT22;11041;50.854;20.580;2022-10-16T11:15:27;19.40;99.90
21759;DHT22;11041;50.854;20.580;2022-10-16T11:18:25;19.50;99.90
21759;DHT22;11041;50.854;20.580;2022-10-16T11:21:07;19.50;99.90
21759;DHT22;11041;50.854;20.580;2022-10-16T11:26:25;19.50;99.90
21759;DHT22;11041;50.854;20.580;2022-10-16T11:28:56;19.70;99.90
21759;DHT22;11041;50.854;20.580;2022-10-16T11:31:29;19.80;99.90
21759;DHT22;11041;50.854;20.580;2022-10-16T11:39:24;20.10;99.90
21759;DHT22;11041;50.854;20.580;2022-10-16T11:45:00;20.10;99.90
21759;DHT22;11041;50.854;20.580;2022-10-16T11:47:40;20.00;99.90
21759;DHT22;11041;50.854;20.580;2022-10-16T11:53:27;20.10;99.90
21759;DHT22;11041;50.854;20.580;2022-10-16T11:56:00;20.10;99.90
21759;DHT22;11041;50.854;20.580;2022-10-16T11:58:41;20.20;99.90
21759;DHT22;11041;50.854;20.580;2022-10-16T12:07:24;20.40;99.90
21759;DHT22;11041;50.854;20.580;2022-10-16T12:10:10;20.40;99.90
21759;DHT22;11041;50.854;20.580;2022-10-16T12:12:45;20.30;99.90
21759;DHT22;11041;50.854;20.580;2022-10-16T12:15:31;20.40;99.90
21759;DHT22;11041;50.854;20.580;2022-10-16T12:18:03;20.50;99.90
21759;DHT22;11041;50.854;20.580;2022-10-16T12:20:33;20.40;99.90
21759;DHT22;11041;50.854;20.580;2022-10-16T12:23:04;20.50;99.90
21759;DHT22;11041;50.854;20.580;2022-10-16T12:28:17;20.60;99.90
21759;DHT22;11041;50.854;20.580;2022-10-16T12:31:00;20.60;99.90
21759;DHT22;11041;50.854;20.580;2022-10-16T12:33:42;20.50;99.90
21759;DHT22;11041;50.854;20.580;2022-10-16T12:36:35;20.40;99.90
21759;DHT22;11041;50.854;20.580;2022-10-16T12:39:03;20.40;99.90
21759;DHT22;11041;50.854;20.580;2022-10-16T12:41:33;20.30;99.90
21759;DHT22;11041;50.854;20.580;2022-10-16T12:44:02;20.20;99.90
21759;DHT22;11041;50.854;20.580;2022-10-16T12:51:40;20.20;99.90
21759;DHT22;11041;50.854;20.580;2022-10-16T12:54:16;20.20;99.90
21759;DHT22;11041;50.854;20.580;2022-10-16T12:57:36;20.20;99.90
21759;DHT22;11041;50.854;20.580;2022-10-16T13:18:40;19.90;99.90
21759;DHT22;11041;50.854;20.580;2022-10-16T13:26:36;20.00;99.90
21759;DHT22;11041;50.854;20.580;2022-10-16T13:29:23;20.00;99.90
21759;DHT22;11041;50.854;20.580;2022-10-16T13:31:58;19.90;99.90
21759;DHT22;11041;50.854;20.580;2022-10-16T13:34:28;20.00;99.90
21759;DHT22;11041;50.854;20.580;2022-10-16T13:36:55;19.90;99.90
21759;DHT22;11041;50.854;20.580;2022-10-16T13:39:30;19.90;99.90
21759;DHT22;11041;50.854;20.580;2022-10-16T13:42:43;19.90;99.90
21759;DHT22;11041;50.854;20.580;2022-10-16T13:45:32;19.90;99.90
21759;DHT22;11041;50.854;20.580;2022-10-16T13:48:03;19.80;99.90
21759;DHT22;11041;50.854;20.580;2022-10-16T13:50:31;19.70;99.90
21759;DHT22;11041;50.854;20.580;2022-10-16T13:53:13;19.70;99.90
21759;DHT22;11041;50.854;20.580;2022-10-16T13:55:40;19.60;99.90
21759;DHT22;11041;50.854;20.580;2022-10-16T13:58:10;19.50;99.90
21759;DHT22;11041;50.854;20.580;2022-10-16T14:01:03;19.40;99.90
21759;DHT22;11041;50.854;20.580;2022-10-16T14:03:33;19.40;99.90
21759;DHT22;11041;50.854;20.580;2022-10-16T14:06:10;19.50;99.90
21759;DHT22;11041;50.854;20.580;2022-10-16T14:11:26;19.50;99.90
21759;DHT22;11041;50.854;20.580;2022-10-16T14:13:54;19.50;99.90
21759;DHT22;11041;50.854;20.580;2022-10-16T14:16:30;19.60;99.90
21759;DHT22;11041;50.854;20.580;2022-10-16T14:19:03;19.60;99.90
21759;DHT22;11041;50.854;20.580;2022-10-16T14:21:37;19.60;99.90
21759;DHT22;11041;50.854;20.580;2022-10-16T14:24:12;19.60;99.90
21759;DHT22;11041;50.854;20.580;2022-10-16T14:26:47;19.60;99.90
21759;DHT22;11041;50.854;20.580;2022-10-16T14:29:18;19.50;99.90
21759;DHT22;11041;50.854;20.580;2022-10-16T14:32:00;19.50;99.90
21759;DHT22;11041;50.854;20.580;2022-10-16T14:34:33;19.40;99.90
21759;DHT22;11041;50.854;20.580;2022-10-16T14:37:22;19.40;99.90
21759;DHT22;11041;50.854;20.580;2022-10-16T14:39:55;19.40;99.90
21759;DHT22;11041;50.854;20.580;2022-10-16T14:42:24;19.30;99.90
21759;DHT22;11041;50.854;20.580;2022-10-16T14:44:53;19.20;99.90
21759;DHT22;11041;50.854;20.580;2022-10-16T14:47:23;19.10;99.90
21759;DHT22;11041;50.854;20.580;2022-10-16T14:49:53;19.10;99.90
21759;DHT22;11041;50.854;20.580;2022-10-16T14:52:25;19.00;99.90
21759;DHT22;11041;50.854;20.580;2022-10-16T14:54:52;19.00;99.90
21759;DHT22;11041;50.854;20.580;2022-10-16T14:57:26;18.90;99.90
21759;DHT22;11041;50.854;20.580;2022-10-16T14:59:57;18.90;99.90
21759;DHT22;11041;50.854;20.580;2022-10-16T15:02:30;18.80;99.90
21759;DHT22;11041;50.854;20.580;2022-10-16T15:05:22;18.70;99.90
21759;DHT22;11041;50.854;20.580;2022-10-16T15:07:53;18.60;99.90
21759;DHT22;11041;50.854;20.580;2022-10-16T15:10:23;18.50;99.90
21759;DHT22;11041;50.854;20.580;2022-10-16T15:12:51;18.40;99.90
21759;DHT22;11041;50.854;20.580;2022-10-16T15:17:59;18.30;99.90
21759;DHT22;11041;50.854;20.580;2022-10-16T15:20:35;18.20;99.90
21759;DHT22;11041;50.854;20.580;2022-10-16T15:23:05;18.10;99.90
21759;DHT22;11041;50.854;20.580;2022-10-16T15:25:43;18.00;99.90
21759;DHT22;11041;50.854;20.580;2022-10-16T15:28:13;18.00;99.90
21759;DHT22;11041;50.854;20.580;2022-10-16T15:30:42;17.90;99.90
21759;DHT22;11041;50.854;20.580;2022-10-16T15:33:19;17.90;99.90
21759;DHT22;11041;50.854;20.580;2022-10-16T15:35:50;17.80;99.90
21759;DHT22;11041;50.854;20.580;2022-10-16T15:38:19;17.80;99.90
21759;DHT22;11041;50.854;20.580;2022-10-16T15:40:48;17.70;99.90
21759;DHT22;11041;50.854;20.580;2022-10-16T15:43:15;17.70;99.90
21759;DHT22;11041;50.854;20.580;2022-10-16T15:45:42;17.60;99.90
21759;DHT22;11041;50.854;20.580;2022-10-16T15:48:12;17.50;99.90
21759;DHT22;11041;50.854;20.580;2022-10-16T15:50:41;17.50;99.90
21759;DHT22;11041;50.854;20.580;2022-10-16T15:53:08;17.40;99.90
21759;DHT22;11041;50.854;20.580;2022-10-16T15:55:35;17.30;99.90
21759;DHT22;11041;50.854;20.580;2022-10-16T15:58:03;17.30;99.90
21759;DHT22;11041;50.854;20.580;2022-10-16T16:00:31;17.30;99.90
21759;DHT22;11041;50.854;20.580;2022-10-16T16:02:58;17.30;99.90
21759;DHT22;11041;50.854;20.580;2022-10-16T16:05:25;17.30;99.90
21759;DHT22;11041;50.854;20.580;2022-10-16T16:07:51;17.20;99.90
21759;DHT22;11041;50.854;20.580;2022-10-16T16:10:19;17.20;99.90
21759;DHT22;11041;50.854;20.580;2022-10-16T16:12:48;17.20;99.90
21759;DHT22;11041;50.854;20.580;2022-10-16T16:15:20;17.20;99.90
21759;DHT22;11041;50.854;20.580;2022-10-16T16:17:48;17.20;99.90
21759;DHT22;11041;50.854;20.580;2022-10-16T16:20:15;17.20;99.90
21759;DHT22;11041;50.854;20.580;2022-10-16T16:22:42;17.10;99.90
21759;DHT22;11041;50.854;20.580;2022-10-16T16:25:09;17.20;99.90
21759;DHT22;11041;50.854;20.580;2022-10-16T16:27:36;17.20;99.90
21759;DHT22;11041;50.854;20.580;2022-10-16T16:30:06;17.20;99.90
21759;DHT22;11041;50.854;20.580;2022-10-16T16:32:34;17.20;99.90
21759;DHT22;11041;50.854;20.580;2022-10-16T16:35:01;17.10;99.90
21759;DHT22;11041;50.854;20.580;2022-10-16T16:37:28;17.10;99.90
21759;DHT22;11041;50.854;20.580;2022-10-16T16:39:55;17.20;99.90
21759;DHT22;11041;50.854;20.580;2022-10-16T16:42:25;17.20;99.90
21759;DHT22;11041;50.854;20.580;2022-10-16T16:44:53;17.20;99.90
21759;DHT22;11041;50.854;20.580;2022-10-16T16:47:20;17.30;99.90
21759;DHT22;11041;50.854;20.580;2022-10-16T16:49:46;17.30;99.90
21759;DHT22;11041;50.854;20.580;2022-10-16T16:52:13;17.20;99.90
21759;DHT22;11041;50.854;20.580;2022-10-16T16:54:41;17.30;99.90
21759;DHT22;11041;50.854;20.580;2022-10-16T16:57:07;17.30;99.90
21759;DHT22;11041;50.854;20.580;2022-10-16T16:59:34;17.10;99.90
21759;DHT22;11041;50.854;20.580;2022-10-16T17:02:02;17.30;99.90
21759;DHT22;11041;50.854;20.580;2022-10-16T17:04:30;17.10;99.90
21759;DHT22;11041;50.854;20.580;2022-10-16T17:06:59;17.20;99.90
21759;DHT22;11041;50.854;20.580;2022-10-16T17:09:28;16.90;99.90
21759;DHT22;11041;50.854;20.580;2022-10-16T17:11:58;17.00;99.90
21759;DHT22;11041;50.854;20.580;2022-10-16T17:16:53;16.80;99.90
21759;DHT22;11041;50.854;20.580;2022-10-16T17:19:21;16.70;99.90
21759;DHT22;11041;50.854;20.580;2022-10-16T17:21:49;16.80;99.90
21759;DHT22;11041;50.854;20.580;2022-10-16T17:24:22;16.70;99.90
21759;DHT22;11041;50.854;20.580;2022-10-16T17:26:49;16.50;99.90
21759;DHT22;11041;50.854;20.580;2022-10-16T17:29:17;16.40;99.90
21759;DHT22;11041;50.854;20.580;2022-10-16T17:31:44;16.30;99.90
21759;DHT22;11041;50.854;20.580;2022-10-16T17:34:15;16.20;99.90
21759;DHT22;11041;50.854;20.580;2022-10-16T17:36:41;16.00;99.90
21759;DHT22;11041;50.854;20.580;2022-10-16T17:39:10;16.00;99.90
21759;DHT22;11041;50.854;20.580;2022-10-16T17:41:39;15.90;99.90
21759;DHT22;11041;50.854;20.580;2022-10-16T17:44:06;15.70;99.90
21759;DHT22;11041;50.854;20.580;2022-10-16T17:46:34;15.60;99.90
21759;DHT22;11041;50.854;20.580;2022-10-16T17:49:01;15.60;99.90
21759;DHT22;11041;50.854;20.580;2022-10-16T17:51:29;15.40;99.90
21759;DHT22;11041;50.854;20.580;2022-10-16T17:53:59;15.30;99.90
21759;DHT22;11041;50.854;20.580;2022-10-16T17:56:26;15.30;99.90
21759;DHT22;11041;50.854;20.580;2022-10-16T17:58:56;15.20;99.90
21759;DHT22;11041;50.854;20.580;2022-10-16T18:01:30;15.10;99.90
21759;DHT22;11041;50.854;20.580;2022-10-16T18:04:02;15.00;99.90
21759;DHT22;11041;50.854;20.580;2022-10-16T18:06:32;15.00;99.90
21759;DHT22;11041;50.854;20.580;2022-10-16T18:09:00;14.90;99.90
21759;DHT22;11041;50.854;20.580;2022-10-16T18:11:28;14.80;99.90
21759;DHT22;11041;50.854;20.580;2022-10-16T18:13:57;14.70;99.90
21759;DHT22;11041;50.854;20.580;2022-10-16T18:16:26;14.60;99.90
21759;DHT22;11041;50.854;20.580;2022-10-16T18:18:55;14.60;99.90
21759;DHT22;11041;50.854;20.580;2022-10-16T18:21:23;14.40;99.90
21759;DHT22;11041;50.854;20.580;2022-10-16T18:23:53;14.40;99.90
21759;DHT22;11041;50.854;20.580;2022-10-16T18:26:22;14.30;99.90
21759;DHT22;11041;50.854;20.580;2022-10-16T18:28:54;14.20;99.90
21759;DHT22;11041;50.854;20.580;2022-10-16T18:31:22;14.10;99.90
21759;DHT22;11041;50.854;20.580;2022-10-16T18:33:54;14.10;99.90
21759;DHT22;11041;50.854;20.580;2022-10-16T18:36:25;14.00;99.90
21759;DHT22;11041;50.854;20.580;2022-10-16T18:38:59;13.90;99.90
21759;DHT22;11041;50.854;20.580;2022-10-16T18:41:28;13.90;99.90
21759;DHT22;11041;50.854;20.580;2022-10-16T18:43:57;13.90;99.90